createdAt,value
2024-02-24T00:00:13.538Z,99852.50
2024-02-24T00:02:42.198Z,99845.69
2024-02-24T00:05:10.503Z,99842.50
2024-02-24T00:07:38.272Z,99832.88
2024-02-24T00:10:06.965Z,99823.34
2024-02-24T00:12:37.267Z,99821.56
2024-02-24T00:15:05.699Z,99812.59
2024-02-24T00:17:33.577Z,99821.97
2024-02-24T00:20:01.198Z,99821.66
2024-02-24T00:22:28.857Z,99811.19
2024-02-24T00:24:56.330Z,99800.16
2024-02-24T00:27:23.987Z,99800.50
2024-02-24T00:29:54.301Z,99796.09
2024-02-24T00:32:22.441Z,99793.06
2024-02-24T00:34:50.300Z,99796.91
2024-02-24T00:37:18.186Z,99785.69
2024-02-24T00:39:46.811Z,99786.84
2024-02-24T00:42:14.831Z,99797.00
2024-02-24T00:44:42.815Z,99791.94
2024-02-24T00:47:13.150Z,99776.78
2024-02-24T00:49:41.296Z,99768.81
2024-02-24T00:52:08.899Z,99760.19
2024-02-24T00:54:36.370Z,99763.63
2024-02-24T00:57:04.119Z,99755.09
2024-02-24T00:59:31.730Z,99761.72
2024-02-24T01:01:59.329Z,99754.19
2024-02-24T01:04:30.560Z,99753.44
2024-02-24T01:06:59.724Z,99737.19
2024-02-24T01:09:29.628Z,99729.03
2024-02-24T01:12:00.366Z,99733.22
2024-02-24T01:14:28.414Z,99727.09
2024-02-24T01:16:56.223Z,99724.75
2024-02-24T01:19:23.913Z,99722.97
2024-02-24T01:21:56.629Z,99717.66
2024-02-24T01:24:26.202Z,99712.97
2024-02-24T01:26:53.807Z,99700.69
2024-02-24T01:29:21.453Z,99689.69
2024-02-24T01:31:49.221Z,99671.88
2024-02-24T01:34:17.094Z,99658.28
2024-02-24T01:36:44.573Z,99651.56
2024-02-24T01:39:14.712Z,99634.25
2024-02-24T01:41:42.675Z,99631.47
2024-02-24T01:44:10.517Z,99635.13
2024-02-24T01:46:38.252Z,99633.00
2024-02-24T01:49:06.267Z,99631.72
2024-02-24T01:51:34.321Z,99635.91
2024-02-24T01:54:02.166Z,99624.81
2024-02-24T01:56:33.869Z,99635.25
2024-02-24T01:59:02.336Z,99632.34
2024-02-24T02:01:30.109Z,99636.47
2024-02-24T02:03:59.391Z,99626.22
2024-02-24T02:06:30.421Z,99632.31
2024-02-24T02:08:58.219Z,99631.31
2024-02-24T02:11:25.907Z,99634.34
2024-02-24T02:13:56.329Z,99628.53
2024-02-24T02:16:24.704Z,99623.66
2024-02-24T02:18:52.661Z,99611.03
2024-02-24T02:21:22.388Z,99609.53
2024-02-24T02:23:52.896Z,99607.72
2024-02-24T02:26:21.442Z,99600.81
2024-02-24T02:28:48.866Z,99603.00
2024-02-24T02:31:16.562Z,99604.94
2024-02-24T02:33:44.364Z,99600.00
2024-02-24T02:36:15.319Z,99601.53
2024-02-24T02:38:43.218Z,99601.41
2024-02-24T02:41:13.284Z,99585.06
2024-02-24T02:43:41.175Z,99584.38
2024-02-24T02:46:08.811Z,99578.69
2024-02-24T02:48:36.481Z,99589.00
2024-02-24T02:51:04.540Z,99588.50
2024-02-24T02:53:32.141Z,99570.38
2024-02-24T02:55:59.698Z,99563.94
2024-02-24T02:58:30.121Z,99559.34
2024-02-24T03:00:57.995Z,99556.50
2024-02-24T03:03:26.544Z,99557.84
2024-02-24T03:05:54.493Z,99545.00
2024-02-24T03:08:22.636Z,99536.09
2024-02-24T03:10:50.293Z,99541.69
2024-02-24T03:13:17.963Z,99539.63
2024-02-24T03:15:48.131Z,99534.63
2024-02-24T03:18:16.590Z,99521.19
2024-02-24T03:20:45.877Z,99521.97
2024-02-24T03:23:15.047Z,99512.00
2024-02-24T03:25:42.622Z,99509.63
2024-02-24T03:28:10.512Z,99500.78
2024-02-24T03:30:38.287Z,99498.16
2024-02-24T03:33:08.812Z,99489.06
2024-02-24T03:35:36.874Z,99475.69
2024-02-24T03:38:04.660Z,99479.50
2024-02-24T03:40:32.752Z,99482.50
2024-02-24T03:43:00.866Z,99483.94
2024-02-24T03:45:28.569Z,99470.91
2024-02-24T03:47:56.487Z,99458.16
2024-02-24T03:50:26.754Z,99455.19
2024-02-24T03:52:55.102Z,99438.94
2024-02-24T03:55:22.536Z,99440.97
2024-02-24T03:57:50.044Z,99429.72
2024-02-24T04:00:19.043Z,99430.31
2024-02-24T04:02:47.108Z,99414.09
2024-02-24T04:05:14.729Z,99405.97
2024-02-24T04:07:44.741Z,99410.75
2024-02-24T04:10:12.680Z,99415.78
2024-02-24T04:12:40.274Z,99416.97
2024-02-24T04:15:08.839Z,99411.00
2024-02-24T04:17:37.152Z,99404.44
2024-02-24T04:20:05.407Z,99411.75
2024-02-24T04:22:33.067Z,99412.47
2024-02-24T04:25:06.158Z,99408.00
2024-02-24T04:27:33.695Z,99405.88
2024-02-24T04:30:01.376Z,99394.78
2024-02-24T04:32:30.470Z,99394.03
2024-02-24T04:34:58.111Z,99383.66
2024-02-24T04:37:25.480Z,99381.50
2024-02-24T04:39:53.921Z,99374.13
2024-02-24T04:42:25.683Z,99367.88
2024-02-24T04:44:53.868Z,99344.84
2024-02-24T04:47:24.597Z,99343.75
2024-02-24T04:49:53.096Z,99335.78
2024-02-24T04:52:21.035Z,99338.38
2024-02-24T04:54:53.094Z,99345.53
2024-02-24T04:57:20.815Z,99342.56
2024-02-24T04:59:51.213Z,99352.81
2024-02-24T05:02:18.972Z,99354.59
2024-02-24T05:04:46.603Z,99352.91
2024-02-24T05:07:14.436Z,99350.50
2024-02-24T05:09:42.251Z,99349.44
2024-02-24T05:12:10.080Z,99343.69
2024-02-24T05:14:39.239Z,99342.00
2024-02-24T05:17:09.734Z,99332.09
2024-02-24T05:19:37.424Z,99313.69
2024-02-24T05:22:05.193Z,99313.09
2024-02-24T05:24:32.790Z,99319.38
2024-02-24T05:27:00.500Z,99310.75
2024-02-24T05:29:28.308Z,99328.09
2024-02-24T05:31:56.015Z,99323.88
2024-02-24T05:34:26.452Z,99328.50
2024-02-24T05:36:55.051Z,99310.19
2024-02-24T05:39:22.752Z,99313.97
2024-02-24T05:41:51.537Z,99306.50
2024-02-24T05:44:19.297Z,99315.44
2024-02-24T05:46:46.873Z,99326.38
2024-02-24T05:49:14.837Z,99317.78
2024-02-24T05:51:46.460Z,99307.03
2024-02-24T05:54:14.437Z,99310.78
2024-02-24T05:56:42.878Z,99323.50
2024-02-24T05:59:10.449Z,99317.63
2024-02-24T06:01:37.864Z,99312.38
2024-02-24T06:04:05.696Z,99305.63
2024-02-24T06:06:33.497Z,99310.63
2024-02-24T06:09:04.183Z,99302.06
2024-02-24T06:11:31.945Z,99302.13
2024-02-24T06:13:59.804Z,99317.56
2024-02-24T06:16:27.527Z,99311.56
2024-02-24T06:18:55.240Z,99323.97
2024-02-24T06:21:22.819Z,99324.50
2024-02-24T06:23:50.470Z,99323.31
2024-02-24T06:26:20.494Z,99323.91
2024-02-24T06:28:47.967Z,99318.41
2024-02-24T06:31:15.658Z,99323.66
2024-02-24T06:33:43.271Z,99313.47
2024-02-24T06:36:11.310Z,99321.00
2024-02-24T06:38:39.250Z,99322.41
2024-02-24T06:41:06.719Z,99323.84
2024-02-24T06:43:36.970Z,99326.31
2024-02-24T06:46:04.991Z,99317.75
2024-02-24T06:48:32.551Z,99314.13
2024-02-24T06:51:00.569Z,99314.47
2024-02-24T06:53:28.552Z,99319.75
2024-02-24T06:55:56.109Z,99320.50
2024-02-24T06:58:23.807Z,99324.66
2024-02-24T07:00:54.325Z,99324.16
2024-02-24T07:03:22.226Z,99316.00
2024-02-24T07:05:49.902Z,99320.34
2024-02-24T07:08:17.347Z,99310.91
2024-02-24T07:10:44.942Z,99323.91
2024-02-24T07:13:12.599Z,99315.00
2024-02-24T07:15:40.249Z,99338.66
2024-02-24T07:18:10.779Z,99345.91
2024-02-24T07:20:38.343Z,99350.03
2024-02-24T07:23:06.027Z,99355.69
2024-02-24T07:25:33.550Z,99353.06
2024-02-24T07:28:01.385Z,99361.22
2024-02-24T07:30:29.072Z,99359.78
2024-02-24T07:32:57.254Z,99371.72
2024-02-24T07:35:27.507Z,99383.16
2024-02-24T07:37:55.050Z,99402.69
2024-02-24T07:40:22.614Z,99402.91
2024-02-24T07:42:50.932Z,99417.88
2024-02-24T07:45:18.692Z,99442.00
2024-02-24T07:47:46.199Z,99438.34
2024-02-24T07:50:14.138Z,99443.81
2024-02-24T07:52:46.291Z,99438.06
2024-02-24T07:55:14.572Z,99453.63
2024-02-24T07:57:42.258Z,99466.19
2024-02-24T08:00:11.054Z,99481.03
2024-02-24T08:02:38.636Z,99485.38
2024-02-24T08:05:07.187Z,99482.91
2024-02-24T08:07:34.604Z,99497.41
2024-02-24T08:10:05.264Z,99495.28
2024-02-24T08:12:32.985Z,99503.31
2024-02-24T08:15:00.562Z,99504.22
2024-02-24T08:17:28.392Z,99497.91
2024-02-24T08:19:55.844Z,99523.84
2024-02-24T08:22:23.273Z,99533.19
2024-02-24T08:24:50.829Z,99531.41
2024-02-24T08:27:21.003Z,99555.31
2024-02-24T08:29:48.635Z,99559.56
2024-02-24T08:32:19.284Z,99580.13
2024-02-24T08:34:47.128Z,99576.25
2024-02-24T08:37:14.905Z,99578.88
2024-02-24T08:39:43.758Z,99603.53
2024-02-24T08:42:11.373Z,99610.75
2024-02-24T08:44:41.630Z,99616.81
2024-02-24T08:47:09.331Z,99620.78
2024-02-24T08:49:36.914Z,99631.75
2024-02-24T08:52:05.009Z,99648.78
2024-02-24T08:54:34.193Z,99667.13
2024-02-24T08:57:01.928Z,99671.56
2024-02-24T08:59:29.567Z,99673.88
2024-02-24T09:01:59.740Z,99682.72
2024-02-24T09:04:27.285Z,99679.56
2024-02-24T09:06:54.728Z,99704.44
2024-02-24T09:09:22.241Z,99711.16
2024-02-24T09:11:51.001Z,99714.53
2024-02-24T09:14:18.812Z,99729.50
2024-02-24T09:16:46.295Z,99735.41
2024-02-24T09:19:16.457Z,99741.72
2024-02-24T09:21:45.384Z,99751.59
2024-02-24T09:24:13.008Z,99761.28
2024-02-24T09:26:40.647Z,99769.03
2024-02-24T09:29:08.414Z,99783.47
2024-02-24T09:31:36.162Z,99781.59
2024-02-24T09:34:03.845Z,99792.72
2024-02-24T09:36:34.299Z,99816.97
2024-02-24T09:39:03.048Z,99801.88
2024-02-24T09:41:30.718Z,99808.72
2024-02-24T09:43:58.544Z,99817.38
2024-02-24T09:46:26.608Z,99832.94
2024-02-24T09:48:54.828Z,99832.97
2024-02-24T09:51:22.266Z,99840.97
2024-02-24T09:53:52.610Z,99841.03
2024-02-24T09:56:24.261Z,99858.91
2024-02-24T09:58:55.143Z,99859.25
2024-02-24T10:01:22.649Z,99873.56
2024-02-24T10:03:51.014Z,99888.59
2024-02-24T10:06:19.035Z,99900.63
2024-02-24T10:08:46.631Z,99912.88
2024-02-24T10:11:17.465Z,99918.97
2024-02-24T10:13:45.918Z,99931.81
2024-02-24T10:16:14.253Z,99944.03
2024-02-24T10:18:42.648Z,99942.97
2024-02-24T10:21:10.543Z,99952.91
2024-02-24T10:23:38.178Z,99952.47
2024-02-24T10:26:06.439Z,99961.09
2024-02-24T10:28:37.058Z,99963.16
2024-02-24T10:31:05.574Z,99976.44
2024-02-24T10:33:36.980Z,99985.69
2024-02-24T10:36:09.156Z,99982.31
2024-02-24T10:41:11.682Z,100000.50
2024-02-24T10:43:43.129Z,100004.50
2024-02-24T10:46:10.782Z,100003.63
2024-02-24T10:48:38.675Z,100002.09
2024-02-24T10:51:06.603Z,100008.81
2024-02-24T10:53:35.505Z,100007.66
2024-02-24T10:56:04.203Z,100013.94
2024-02-24T10:58:34.418Z,100010.03
2024-02-24T11:01:05.865Z,100018.19
2024-02-24T11:03:33.591Z,100014.63
2024-02-24T11:06:01.423Z,100015.16
2024-02-24T11:08:36.693Z,100028.06
2024-02-24T11:11:05.830Z,100029.19
2024-02-24T11:13:34.071Z,100032.63
2024-02-24T11:16:05.981Z,100042.50
2024-02-24T11:18:57.750Z,100045.19
2024-02-24T11:21:55.731Z,100050.78
2024-02-24T11:24:23.495Z,100052.69
2024-02-24T11:26:51.214Z,100058.97
2024-02-24T11:29:19.216Z,100057.63
2024-02-24T11:31:49.541Z,100059.50
2024-02-24T11:34:17.933Z,100069.28
2024-02-24T11:36:45.968Z,100062.25
2024-02-24T11:39:14.491Z,100068.31
2024-02-24T11:41:42.711Z,100083.50
2024-02-24T11:44:11.576Z,100073.56
2024-02-24T11:46:40.534Z,100075.78
2024-02-24T11:49:12.133Z,100088.78
2024-02-24T11:51:41.541Z,100086.16
2024-02-24T11:54:11.089Z,100096.13
2024-02-24T11:56:39.133Z,100104.28
2024-02-24T11:59:08.479Z,100114.78
2024-02-24T12:01:37.626Z,100112.75
2024-02-24T12:04:05.664Z,100120.13
2024-02-24T12:06:36.400Z,100127.31
2024-02-24T12:09:04.253Z,100131.22
2024-02-24T12:11:32.815Z,100130.22
2024-02-24T12:14:00.609Z,100139.69
2024-02-24T12:16:29.439Z,100135.28
2024-02-24T12:18:58.224Z,100145.97
2024-02-24T12:21:29.029Z,100149.78
2024-02-24T12:23:59.629Z,100151.03
2024-02-24T12:26:28.369Z,100161.28
2024-02-24T12:28:56.577Z,100157.97
2024-02-24T12:31:24.616Z,100164.56
2024-02-24T12:33:52.628Z,100169.38
2024-02-24T12:36:20.416Z,100167.53
2024-02-24T12:38:49.910Z,100168.31
2024-02-24T12:41:20.209Z,100174.97
2024-02-24T12:43:47.848Z,100170.72
2024-02-24T12:46:16.245Z,100168.06
2024-02-24T12:48:46.234Z,100171.25
2024-02-24T12:51:14.026Z,100174.22
2024-02-24T12:53:43.096Z,100175.69
2024-02-24T12:56:10.700Z,100174.59
2024-02-24T12:58:42.925Z,100174.91
2024-02-24T13:01:10.927Z,100178.53
2024-02-24T13:03:38.806Z,100185.38
2024-02-24T13:06:08.945Z,100187.91
2024-02-24T13:08:36.599Z,100194.84
2024-02-24T13:11:04.735Z,100188.13
2024-02-24T13:13:32.342Z,100190.91
2024-02-24T13:16:02.472Z,100195.44
2024-02-24T13:18:30.351Z,100202.31
2024-02-24T13:20:58.024Z,100202.53
2024-02-24T13:23:25.596Z,100217.00
2024-02-24T13:25:53.257Z,100216.31
2024-02-24T13:28:20.745Z,100223.19
2024-02-24T13:30:48.453Z,100227.31
2024-02-24T13:33:19.250Z,100239.81
2024-02-24T13:35:46.897Z,100235.34
2024-02-24T13:38:14.477Z,100241.84
2024-02-24T13:40:43.587Z,100241.19
2024-02-24T13:43:13.308Z,100246.50
2024-02-24T13:45:41.509Z,100241.81
2024-02-24T13:48:09.040Z,100261.03
2024-02-24T13:50:39.377Z,100260.50
2024-02-24T13:53:08.252Z,100261.25
2024-02-24T13:55:36.775Z,100260.59
2024-02-24T13:58:06.249Z,100265.53
2024-02-24T14:00:34.097Z,100263.63
2024-02-24T14:03:04.347Z,100273.22
2024-02-24T14:05:34.768Z,100278.19
2024-02-24T14:08:06.098Z,100273.34
2024-02-24T14:10:34.954Z,100273.78
2024-02-24T14:13:02.712Z,100277.41
2024-02-24T14:15:30.220Z,100277.09
2024-02-24T14:17:59.535Z,100279.81
2024-02-24T14:20:33.188Z,100293.00
2024-02-24T14:23:01.199Z,100289.25
2024-02-24T14:25:33.062Z,100293.59
2024-02-24T14:28:03.908Z,100295.03
2024-02-24T14:30:34.794Z,100287.00
2024-02-24T14:33:02.481Z,100284.81
2024-02-24T14:35:30.137Z,100295.03
2024-02-24T14:37:57.796Z,100301.38
2024-02-24T14:40:25.757Z,100296.25
2024-02-24T14:42:57.767Z,100294.75
2024-02-24T14:45:26.933Z,100305.47
2024-02-24T14:47:56.314Z,100307.09
2024-02-24T14:50:24.164Z,100303.56
2024-02-24T14:52:51.557Z,100312.16
2024-02-24T14:55:19.208Z,100324.56
2024-02-24T14:57:46.859Z,100315.91
2024-02-24T15:00:18.114Z,100328.03
2024-02-24T15:02:53.100Z,100329.91
2024-02-24T15:05:32.016Z,100327.31
2024-02-24T15:07:59.567Z,100337.47
2024-02-24T15:10:26.924Z,100335.72
2024-02-24T15:12:55.273Z,100341.25
2024-02-24T15:15:25.442Z,100351.66
2024-02-24T15:17:56.218Z,100353.81
2024-02-24T15:20:24.125Z,100354.00
2024-02-24T15:22:52.413Z,100356.06
2024-02-24T15:25:20.237Z,100358.50
2024-02-24T15:27:48.008Z,100363.41
2024-02-24T15:30:16.193Z,100372.22
2024-02-24T15:32:46.506Z,100370.63
2024-02-24T15:35:14.457Z,100375.06
2024-02-24T15:37:42.376Z,100382.56
2024-02-24T15:40:12.883Z,100388.72
2024-02-24T15:42:40.573Z,100382.94
2024-02-24T15:45:09.217Z,100382.94
2024-02-24T15:47:37.321Z,100384.09
2024-02-24T15:50:08.720Z,100398.22
2024-02-24T15:52:36.691Z,100389.31
2024-02-24T15:55:04.975Z,100391.00
2024-02-24T15:57:32.723Z,100398.56
2024-02-24T16:00:00.560Z,100395.84
2024-02-24T16:02:28.708Z,100411.63
2024-02-24T16:04:56.448Z,100412.94
2024-02-24T16:07:26.820Z,100419.53
2024-02-24T16:09:54.467Z,100435.47
2024-02-24T16:12:22.672Z,100444.44
2024-02-24T16:14:50.411Z,100441.88
2024-02-24T16:17:18.404Z,100440.28
2024-02-24T16:19:46.055Z,100448.94
2024-02-24T16:22:13.932Z,100453.66
2024-02-24T16:24:44.110Z,100453.06
2024-02-24T16:27:12.521Z,100462.66
2024-02-24T16:29:40.405Z,100470.28
2024-02-24T16:32:09.951Z,100467.53
2024-02-24T16:34:38.101Z,100472.50
2024-02-24T16:37:06.160Z,100478.22
2024-02-24T16:39:33.976Z,100478.03
2024-02-24T16:42:04.973Z,100485.22
2024-02-24T16:44:32.629Z,100486.72
2024-02-24T16:47:02.434Z,100488.69
2024-02-24T16:49:32.074Z,100495.06
2024-02-24T16:51:59.674Z,100489.13
2024-02-24T16:54:27.419Z,100496.53
2024-02-24T16:56:55.215Z,100500.78
2024-02-24T16:59:25.526Z,100499.53
2024-02-24T17:01:53.531Z,100503.16
2024-02-24T17:04:21.295Z,100500.44
2024-02-24T17:06:48.936Z,100506.16
2024-02-24T17:09:16.748Z,100513.16
2024-02-24T17:11:44.861Z,100511.25
2024-02-24T17:14:12.668Z,100521.22
2024-02-24T17:16:43.063Z,100514.25
2024-02-24T17:19:11.213Z,100523.50
2024-02-24T17:21:39.213Z,100510.63
2024-02-24T17:24:07.484Z,100519.94
2024-02-24T17:26:35.377Z,100518.88
2024-02-24T17:29:03.680Z,100516.56
2024-02-24T17:31:31.638Z,100524.81
2024-02-24T17:34:02.299Z,100517.63
2024-02-24T17:36:32.138Z,100528.00
2024-02-24T17:38:59.566Z,100530.50
2024-02-24T17:41:27.259Z,100531.56
2024-02-24T17:43:54.969Z,100533.03
2024-02-24T17:46:23.061Z,100534.72
2024-02-24T17:48:51.149Z,100530.28
2024-02-24T17:51:21.447Z,100531.78
2024-02-24T17:53:54.997Z,100537.03
2024-02-24T17:56:23.599Z,100538.09
2024-02-24T17:58:52.485Z,100542.94
2024-02-24T18:01:20.428Z,100542.94
2024-02-24T18:03:48.188Z,100537.25
2024-02-24T18:06:16.677Z,100545.69
2024-02-24T18:08:47.759Z,100549.25
2024-02-24T18:11:15.695Z,100545.25
2024-02-24T18:13:43.305Z,100543.13
2024-02-24T18:16:12.795Z,100537.84
2024-02-24T18:18:40.574Z,100544.22
2024-02-24T18:21:15.793Z,100551.09
2024-02-24T18:23:43.304Z,100560.63
2024-02-24T18:26:13.736Z,100563.56
2024-02-24T18:28:41.347Z,100564.22
2024-02-24T18:31:09.892Z,100572.03
2024-02-24T18:33:38.470Z,100565.25
2024-02-24T18:36:07.934Z,100566.25
2024-02-24T18:38:35.686Z,100567.91
2024-02-24T18:41:03.536Z,100567.91
2024-02-24T18:43:34.288Z,100576.13
2024-02-24T18:46:02.094Z,100582.47
2024-02-24T18:48:29.724Z,100579.72
2024-02-24T18:50:57.322Z,100579.25
2024-02-24T18:53:24.770Z,100590.41
2024-02-24T18:55:52.646Z,100596.19
2024-02-24T18:58:20.405Z,100594.56
2024-02-24T19:00:50.847Z,100595.03
2024-02-24T19:03:18.851Z,100594.81
2024-02-24T19:05:46.826Z,100599.56
2024-02-24T19:08:14.742Z,100596.84
2024-02-24T19:10:42.451Z,100609.75
2024-02-24T19:13:09.929Z,100607.28
2024-02-24T19:15:37.765Z,100611.06
2024-02-24T19:18:14.907Z,100609.06
2024-02-24T19:20:43.081Z,100612.69
2024-02-24T19:23:12.344Z,100618.13
2024-02-24T19:25:40.347Z,100618.75
2024-02-24T19:28:08.164Z,100623.34
2024-02-24T19:30:36.035Z,100618.94
2024-02-24T19:33:04.506Z,100625.72
2024-02-24T19:35:35.381Z,100630.34
2024-02-24T19:38:03.730Z,100634.72
2024-02-24T19:40:31.659Z,100635.25
2024-02-24T19:42:59.342Z,100627.13
2024-02-24T19:45:27.093Z,100628.78
2024-02-24T19:47:55.229Z,100638.88
2024-02-24T19:50:23.240Z,100628.28
2024-02-24T19:52:53.818Z,100635.63
2024-02-24T19:55:22.733Z,100637.34
2024-02-24T19:57:50.677Z,100636.66
2024-02-24T20:00:18.937Z,100639.88
2024-02-24T20:02:46.918Z,100647.03
2024-02-24T20:05:14.994Z,100654.69
2024-02-24T20:07:42.780Z,100646.97
2024-02-24T20:10:13.266Z,100649.75
2024-02-24T20:12:41.891Z,100648.47
2024-02-24T20:15:10.842Z,100652.78
2024-02-24T20:17:38.523Z,100660.94
2024-02-24T20:20:08.033Z,100656.63
2024-02-24T20:22:35.631Z,100658.78
2024-02-24T20:25:03.282Z,100657.94
2024-02-24T20:27:33.542Z,100673.09
2024-02-24T20:30:01.577Z,100668.00
2024-02-24T20:32:29.163Z,100676.88
2024-02-24T20:34:56.860Z,100674.00
2024-02-24T20:37:31.812Z,100683.06
2024-02-24T20:40:00.901Z,100675.78
2024-02-24T20:42:28.753Z,100674.47
2024-02-24T20:44:59.083Z,100671.97
2024-02-24T20:47:26.965Z,100673.94
2024-02-24T20:49:54.615Z,100678.31
2024-02-24T20:52:22.340Z,100663.25
2024-02-24T20:54:51.100Z,100663.69
2024-02-24T20:57:18.855Z,100660.31
2024-02-24T20:59:47.047Z,100658.75
2024-02-24T21:02:17.420Z,100663.97
2024-02-24T21:04:44.969Z,100673.44
2024-02-24T21:07:12.570Z,100679.56
2024-02-24T21:09:40.173Z,100687.66
2024-02-24T21:12:11.483Z,100690.19
2024-02-24T21:14:39.082Z,100688.56
2024-02-24T21:17:07.129Z,100692.78
2024-02-24T21:19:37.349Z,100689.03
2024-02-24T21:22:05.561Z,100699.13
2024-02-24T21:24:33.134Z,100703.75
2024-02-24T21:27:00.696Z,100704.28
2024-02-24T21:29:28.243Z,100693.91
2024-02-24T21:31:55.794Z,100698.72
2024-02-24T21:34:23.759Z,100694.81
2024-02-24T21:36:53.942Z,100697.75
2024-02-24T21:39:21.396Z,100689.47
2024-02-24T21:41:49.143Z,100694.16
2024-02-24T21:44:16.739Z,100706.53
2024-02-24T21:46:44.124Z,100698.53
2024-02-24T21:49:11.916Z,100703.97
2024-02-24T21:51:39.579Z,100694.69
2024-02-24T21:54:13.698Z,100694.75
2024-02-24T21:56:41.518Z,100698.91
2024-02-24T21:59:09.157Z,100704.84
2024-02-24T22:01:36.703Z,100702.66
2024-02-24T22:04:04.950Z,100697.47
2024-02-24T22:06:32.573Z,100705.94
2024-02-24T22:09:00.250Z,100702.66
2024-02-24T22:11:35.328Z,100714.09
2024-02-24T22:14:03.278Z,100707.78
2024-02-24T22:16:31.201Z,100718.97
2024-02-24T22:18:58.779Z,100719.63
2024-02-24T22:21:28.109Z,100716.13
2024-02-24T22:23:56.581Z,100714.38
2024-02-24T22:26:25.669Z,100721.06
2024-02-24T22:28:56.570Z,100712.97
2024-02-24T22:31:24.022Z,100721.94
2024-02-24T22:33:51.704Z,100723.66
2024-02-24T22:36:21.861Z,100721.75
2024-02-24T22:38:53.324Z,100725.94
2024-02-24T22:41:24.550Z,100728.97
2024-02-24T22:43:52.779Z,100722.81
2024-02-24T22:46:23.091Z,100724.50
2024-02-24T22:48:50.881Z,100725.56
2024-02-24T22:51:19.768Z,100725.09
2024-02-24T22:53:47.455Z,100723.88
2024-02-24T22:56:14.949Z,100731.69
2024-02-24T22:58:46.408Z,100739.66
2024-02-24T23:01:15.548Z,100737.28
2024-02-24T23:03:45.899Z,100734.63
2024-02-24T23:06:13.870Z,100735.31
2024-02-24T23:08:41.421Z,100737.88
2024-02-24T23:11:08.951Z,100744.19
2024-02-24T23:13:36.584Z,100738.97
2024-02-24T23:16:04.362Z,100738.97
2024-02-24T23:18:32.448Z,100740.03
2024-02-24T23:21:02.735Z,100743.59
2024-02-24T23:23:30.644Z,100736.63
2024-02-24T23:25:58.455Z,100746.06
2024-02-24T23:28:25.814Z,100745.69
2024-02-24T23:30:53.269Z,100744.63
2024-02-24T23:33:21.137Z,100742.53
2024-02-24T23:35:48.977Z,100748.19
2024-02-24T23:38:19.490Z,100748.19
2024-02-24T23:40:47.067Z,100759.34
2024-02-24T23:43:14.912Z,100760.91
2024-02-24T23:45:44.516Z,100761.16
2024-02-24T23:48:12.561Z,100767.19
2024-02-24T23:50:40.151Z,100771.97
2024-02-24T23:53:07.706Z,100773.50
2024-02-24T23:55:38.089Z,100785.94
2024-02-24T23:58:07.187Z,100775.84
